Glenwood, MN

5:05 PM CDT on May 26, 2017 (GMT -0500)
Glenwood Municipal

Weather History for KGHW - December, 2013

Change the Weather History Date:

Wednesday, December 4, 2013

  Actual Average Record
Temperature  
Mean Temperature 18 °F -  
Max Temperature 32 °F 29 °F 54 °F (1962)
Min Temperature 5 °F 11 °F -14 °F (1972)
Degree Days  
Heating Degree Days 46    
Moisture  
Dew Point 20 °F    
Average Humidity 92    
Maximum Humidity 100    
Minimum Humidity 85    
Precipitation  
Precipitation 0.04 in - - ()
Sea Level Pressure  
Sea Level Pressure 29.64 in    
Wind  
Wind Speed 11 mph (North)    
Max Wind Speed 23 mph    
Max Gust Speed 33 mph    
Visibility 4 miles    
Events Snow    
Averages and records for this station are not official NWS values.
T = Trace of Precipitation, MM = Missing Value Source: NWS Daily Summary

Daily Weather History Graph

Daily Weather History Graph

Search for Another Location

Airport or City:

Trip Planner

Search our weather history database for the weather conditions in past years. The results will help you decide how hot, cold, wet, or windy it might be!

Date:

Astronomy

Dec. 04, 2013 Rise Set
Actual Time 7:45 AM CST 4:37 PM CST
Civil Twilight 7:11 AM CST 5:11 PM CST
Nautical Twilight 6:34 AM CST 5:49 PM CST
Astronomical Twilight 5:58 AM CST 6:24 PM CST
Moon 9:12 AM CST (12/4) 6:52 PM CST (12/4)
Length of Visible Light 10h 00m
Length of Day
8h 52m
Waxing Crescent, 4% of the Moon is Illuminated
Dec 4
Waxing Crescent
Dec 9
First Quarter
Dec 17
Full
Dec 25
Last Quarter
Jan 1
New

Hourly Weather History & Observations

Time (CST) Temp. Windchill Dew Point Humidity Pressure Visibility Wind Dir Wind Speed Gust Speed Precip Events Conditions
12:13 AM 30.2 °F 20.8 °F 28.4 °F 93% 29.76 in 5.0 mi ENE 11.5 mph - N/A   Overcast
12:33 AM 28.4 °F 19.1 °F 28.4 °F 100% 29.76 in 5.0 mi ENE 10.4 mph - N/A   Overcast
12:53 AM 28.4 °F 19.1 °F 28.4 °F 100% 29.77 in 4.0 mi ENE 10.4 mph - N/A   Overcast
1:14 AM 28.4 °F 18.5 °F 28.4 °F 100% 29.75 in 4.0 mi ENE 11.5 mph - N/A   Overcast
1:33 AM 28.4 °F 17.5 °F 28.4 °F 100% 29.75 in 10.0 mi ENE 13.8 mph - N/A   Overcast
1:53 AM 28.4 °F 18.0 °F 26.6 °F 93% 29.75 in 10.0 mi ENE 12.7 mph - N/A   Overcast
2:14 AM 28.4 °F 18.0 °F 26.6 °F 93% 29.75 in 10.0 mi ENE 12.7 mph - N/A   Overcast
2:33 AM 28.4 °F 18.0 °F 26.6 °F 93% 29.76 in 10.0 mi ENE 12.7 mph - N/A   Overcast
2:53 AM 26.6 °F 16.8 °F 26.6 °F 100% 29.74 in 2.5 mi ENE 10.4 mph - N/A Snow Light Snow
3:13 AM 26.6 °F 16.2 °F 26.6 °F 100% 29.74 in 1.8 mi ENE 11.5 mph - N/A Snow Light Snow
3:33 AM 26.6 °F 16.8 °F 26.6 °F 100% 29.73 in 3.0 mi ENE 10.4 mph - N/A Snow Light Snow
3:54 AM 26.6 °F 17.5 °F 26.6 °F 100% 29.73 in 1.8 mi ENE 9.2 mph - N/A Snow Light Snow
4:13 AM 26.6 °F 19.1 °F 26.6 °F 100% 29.73 in 1.5 mi NE 6.9 mph - N/A Snow Light Snow
4:33 AM 26.6 °F 18.2 °F 26.6 °F 100% 29.73 in 2.0 mi NE 8.1 mph - N/A Snow Light Snow
4:53 AM 26.6 °F 19.1 °F 26.6 °F 100% 29.72 in 1.8 mi NE 6.9 mph - N/A Snow Light Snow
5:13 AM 26.6 °F 20.0 °F 26.6 °F 100% 29.72 in 2.0 mi NNE 5.8 mph - 0.01 in Snow Light Snow
5:33 AM 26.6 °F 20.0 °F 26.6 °F 100% 29.73 in 2.5 mi NNE 5.8 mph - 0.01 in Snow Light Snow
5:53 AM 26.6 °F 18.2 °F 24.8 °F 93% 29.71 in 2.5 mi NNE 8.1 mph - 0.01 in Snow Light Snow
6:14 AM 26.6 °F 18.2 °F 24.8 °F 93% 29.71 in 2.5 mi NNE 8.1 mph - N/A Snow Light Snow
6:33 AM 26.6 °F 17.5 °F 24.8 °F 93% 29.69 in 1.8 mi NE 9.2 mph - N/A Snow Light Snow
6:53 AM 26.6 °F 16.8 °F 24.8 °F 93% 29.68 in 1.8 mi NE 10.4 mph - N/A Snow Light Snow
7:13 AM 26.6 °F 17.5 °F 24.8 °F 93% 29.68 in 2.5 mi NNE 9.2 mph - N/A Snow Light Snow
7:33 AM 26.6 °F 18.2 °F 24.8 °F 93% 29.67 in 4.0 mi NNE 8.1 mph - N/A Snow Light Snow
7:53 AM 26.6 °F 17.5 °F 24.8 °F 93% 29.67 in 2.0 mi NE 9.2 mph - N/A Snow Light Snow
8:13 AM 26.6 °F 19.1 °F 24.8 °F 93% 29.68 in 1.0 mi NNE 6.9 mph - N/A Snow Light Snow
8:34 AM 26.6 °F 18.2 °F 24.8 °F 93% 29.67 in 4.0 mi NNE 8.1 mph - N/A Snow Light Snow
8:53 AM 26.6 °F 19.1 °F 24.8 °F 93% 29.66 in 1.5 mi NNE 6.9 mph - N/A Snow Light Snow
9:13 AM 26.6 °F 20.0 °F 24.8 °F 93% 29.66 in 1.2 mi North 5.8 mph - N/A Snow Light Snow
9:33 AM 24.8 °F 16.9 °F 24.8 °F 100% 29.65 in 3.0 mi North 6.9 mph - N/A Snow Light Snow
9:53 AM 24.8 °F 16.1 °F 24.8 °F 100% 29.63 in 10.0 mi NNE 8.1 mph - 0.01 in   Mostly Cloudy
10:14 AM 24.8 °F 14.6 °F 23.0 °F 93% 29.62 in 10.0 mi NNE 10.4 mph - N/A   Mostly Cloudy
10:33 AM 24.8 °F 16.1 °F 23.0 °F 93% 29.63 in 5.0 mi North 8.1 mph - N/A Snow Light Snow
10:53 AM 24.8 °F 15.3 °F 23.0 °F 93% 29.62 in 1.2 mi North 9.2 mph - N/A Snow Light Snow
11:14 AM 24.8 °F 16.9 °F 23.0 °F 93% 29.61 in 1.8 mi North 6.9 mph - N/A Snow Light Snow
11:33 AM 24.8 °F 16.1 °F 23.0 °F 93% 29.58 in 1.8 mi North 8.1 mph - N/A Snow Light Snow
11:53 AM 24.8 °F 16.1 °F 21.2 °F 86% 29.58 in 2.5 mi North 8.1 mph - N/A Snow Light Snow
12:13 PM 24.8 °F 15.3 °F 21.2 °F 86% 29.57 in 2.0 mi North 9.2 mph - N/A Snow Light Snow
12:33 PM 24.8 °F 16.9 °F 21.2 °F 86% 29.58 in 1.0 mi North 6.9 mph - N/A Snow Light Snow
12:53 PM 24.8 °F 15.3 °F 21.2 °F 86% 29.58 in 0.8 mi NNW 9.2 mph - 0.01 in Snow Light Snow
1:13 PM 23.0 °F 13.1 °F 21.2 °F 93% 29.56 in 1.0 mi North 9.2 mph - N/A Snow Light Snow
1:33 PM 21.2 °F 9.5 °F 19.4 °F 93% 29.54 in 0.8 mi North 11.5 mph - N/A Snow Light Snow
1:53 PM 21.2 °F 11.7 °F 19.4 °F 93% 29.55 in 1.0 mi North 8.1 mph - N/A Snow Light Snow
2:13 PM 21.2 °F 10.9 °F 19.4 °F 93% 29.55 in 0.8 mi NNW 9.2 mph - N/A Snow Light Snow
2:33 PM 21.2 °F 10.9 °F 19.4 °F 93% 29.52 in 0.5 mi North 9.2 mph - 0.01 in Snow Light Snow
2:53 PM 21.2 °F 10.9 °F 19.4 °F 93% 29.52 in 2.0 mi NNW 9.2 mph - 0.01 in Snow Light Snow
3:13 PM 21.2 °F 10.9 °F 17.6 °F 86% 29.52 in 4.0 mi NW 9.2 mph - N/A Snow Light Snow
3:33 PM 21.2 °F 8.9 °F 17.6 °F 86% 29.54 in 7.0 mi WNW 12.7 mph 18.4 mph N/A Snow Light Snow
3:53 PM 21.2 °F 8.9 °F 17.6 °F 86% 29.56 in 10.0 mi WNW 12.7 mph - N/A Snow Light Snow
4:13 PM 19.4 °F 7.2 °F 17.6 °F 93% 29.55 in 10.0 mi NW 11.5 mph - N/A   Mostly Cloudy
4:33 PM 19.4 °F 7.2 °F 17.6 °F 93% 29.55 in 10.0 mi NW 11.5 mph - N/A   Mostly Cloudy
4:53 PM 19.4 °F 5.5 °F 17.6 °F 93% 29.56 in 10.0 mi WNW 15.0 mph 20.7 mph N/A Snow Light Snow
5:13 PM 19.4 °F 6.0 °F 17.6 °F 93% 29.56 in 5.0 mi West 13.8 mph - N/A Snow Light Snow
5:33 PM 17.6 °F 3.7 °F 15.8 °F 93% 29.57 in 7.0 mi West 13.8 mph - N/A   Overcast
5:53 PM 17.6 °F 1.7 °F 15.8 °F 93% 29.58 in 10.0 mi WNW 18.4 mph - N/A Snow Light Snow
6:13 PM 15.8 °F 0.9 °F 14.0 °F 93% 29.58 in 10.0 mi West 15.0 mph 20.7 mph N/A Snow Light Snow
6:33 PM 15.8 °F -0.2 °F 12.2 °F 86% 29.57 in 5.0 mi WNW 17.3 mph - N/A Snow Light Snow
6:53 PM 14.0 °F -3.9 °F 12.2 °F 93% 29.58 in 5.0 mi West 20.7 mph 25.3 mph N/A Snow Light Snow
7:13 PM 14.0 °F -2.0 °F 10.4 °F 86% 29.59 in 5.0 mi West 16.1 mph 23.0 mph N/A Snow Light Snow
7:33 PM 14.0 °F -3.0 °F 10.4 °F 86% 29.59 in 4.0 mi West 18.4 mph 21.9 mph N/A Snow Light Snow
7:53 PM 14.0 °F -3.0 °F 10.4 °F 86% 29.60 in 4.0 mi West 18.4 mph 25.3 mph N/A Snow Light Snow
8:13 PM 12.2 °F -6.3 °F 10.4 °F 92% 29.60 in 3.0 mi West 20.7 mph 27.6 mph N/A Snow Light Snow
8:33 PM 10.4 °F -9.1 °F 8.6 °F 92% 29.61 in 4.0 mi West 21.9 mph 26.5 mph N/A Snow Light Snow
8:53 PM 10.4 °F -8.2 °F 6.8 °F 85% 29.63 in 4.0 mi West 19.6 mph 27.6 mph N/A Snow Light Snow
9:13 PM 32.0 °F 19.8 °F - N/A% 29.64 in 3.0 mi West 20.7 mph - N/A Snow Light Snow
9:33 PM 10.4 °F -8.6 °F 6.8 °F 85% 29.64 in 3.0 mi West 20.7 mph 29.9 mph N/A Snow Light Snow
9:53 PM 8.6 °F -11.0 °F 6.8 °F 92% 29.65 in 3.0 mi West 20.7 mph 26.5 mph N/A Snow Light Snow
10:13 PM 8.6 °F -11.4 °F 5.0 °F 85% 29.66 in 2.5 mi West 21.9 mph 29.9 mph N/A Snow Light Snow
10:33 PM 8.6 °F -10.5 °F 5.0 °F 85% 29.66 in 2.5 mi West 19.6 mph 33.4 mph N/A Snow Light Snow
10:53 PM 6.8 °F -13.4 °F 3.2 °F 85% 29.66 in 3.0 mi West 20.7 mph 29.9 mph N/A   Overcast
11:13 PM 6.8 °F -14.3 °F 3.2 °F 85% 29.68 in 3.0 mi West 23.0 mph 29.9 mph N/A   Overcast
11:33 PM 5.0 °F -15.7 °F 1.4 °F 85% 29.69 in 3.0 mi West 20.7 mph 28.8 mph N/A   Overcast
11:53 PM 5.0 °F -16.2 °F 1.4 °F 85% 29.70 in 3.0 mi West 21.9 mph 29.9 mph N/A   Overcast